Time;durP1;ratioP1;P1;durP2;ratioP2;P2;SDS_P1;SDS_P2;PMS_P1;PMS_P2;Temp;Humidity;BMP_temperature;BMP_pressure;BME280_temperature;BME280_humidity;BME280_pressure;Samples;Min_cycle;Max_cycle;Signal;HPM_P1;HPM_P2
2021/07/07 00:00:49;;;;;;;6.15;2.42;;;;;;;;;;5012604;28;20124;-60
2021/07/07 00:03:15;;;;;;;5.13;2.10;;;;;;;;;;5011654;28;20045;-59
2021/07/07 00:05:41;;;;;;;4.10;1.95;;;;;;;;;;5011307;28;20549;-61
2021/07/07 00:08:06;;;;;;;4.22;1.88;;;;;;;;;;5029585;28;20487;-60
2021/07/07 00:10:36;;;;;;;4.32;2.17;;;;;;;;;;5013612;28;20152;-61
2021/07/07 00:13:03;;;;;;;5.47;2.00;;;;;;;;;;5010455;28;20038;-60
2021/07/07 00:15:32;;;;;;;4.03;1.90;;;;;;;;;;5012698;28;20038;-59
2021/07/07 00:17:58;;;;;;;6.10;2.65;;;;;;;;;;5014033;28;20045;-61
2021/07/07 00:20:24;;;;;;;4.45;2.40;;;;;;;;;;5011059;28;20033;-61
2021/07/07 00:22:50;;;;;;;5.25;2.60;;;;;;;;;;5010905;28;20064;-61
2021/07/07 00:25:16;;;;;;;3.97;2.10;;;;;;;;;;5013639;28;20049;-60
2021/07/07 00:27:42;;;;;;;5.20;2.25;;;;;;;;;;5025508;28;20084;-59
2021/07/07 00:30:08;;;;;;;5.18;2.03;;;;;;;;;;5012956;28;20033;-59
2021/07/07 00:32:34;;;;;;;4.80;2.25;;;;;;;;;;5010598;28;20803;-60
2021/07/07 00:35:00;;;;;;;6.05;2.13;;;;;;;;;;5008757;28;20041;-60
2021/07/07 00:37:26;;;;;;;5.00;2.03;;;;;;;;;;5008275;28;20510;-60
2021/07/07 00:39:51;;;;;;;3.55;1.83;;;;;;;;;;5011231;28;20060;-59
2021/07/07 00:42:17;;;;;;;4.38;2.00;;;;;;;;;;5009931;28;20064;-60
2021/07/07 00:44:43;;;;;;;8.43;2.25;;;;;;;;;;5009681;28;20077;-58
2021/07/07 00:47:09;;;;;;;3.80;1.80;;;;;;;;;;5011102;28;20045;-60
2021/07/07 00:49:35;;;;;;;5.38;2.05;;;;;;;;;;5012405;28;20088;-57
2021/07/07 00:52:03;;;;;;;5.22;2.00;;;;;;;;;;5012623;28;20483;-59
2021/07/07 00:54:30;;;;;;;4.10;1.92;;;;;;;;;;5011051;28;20407;-59
2021/07/07 00:56:56;;;;;;;4.22;2.20;;;;;;;;;;5010745;28;20308;-60
2021/07/07 00:59:22;;;;;;;4.40;1.83;;;;;;;;;;5008141;28;20037;-60
2021/07/07 01:01:48;;;;;;;5.10;2.17;;;;;;;;;;5010676;28;20042;-60
2021/07/07 01:04:14;;;;;;;5.28;1.98;;;;;;;;;;5008074;28;20072;-60
2021/07/07 01:06:40;;;;;;;4.55;1.98;;;;;;;;;;5023972;28;20045;-58
2021/07/07 01:09:06;;;;;;;4.03;2.05;;;;;;;;;;5012950;28;20547;-57
2021/07/07 01:11:33;;;;;;;5.10;2.00;;;;;;;;;;5010470;28;20041;-59
2021/07/07 01:13:59;;;;;;;5.20;2.55;;;;;;;;;;5009718;28;20037;-60
2021/07/07 01:16:25;;;;;;;4.70;2.28;;;;;;;;;;5009989;28;20102;-60
2021/07/07 01:18:51;;;;;;;3.78;1.77;;;;;;;;;;5010871;28;20056;-58
2021/07/07 01:21:18;;;;;;;4.93;1.80;;;;;;;;;;5010093;28;20046;-59
2021/07/07 01:23:44;;;;;;;4.57;1.70;;;;;;;;;;5009433;28;20037;-59
2021/07/07 01:26:10;;;;;;;5.60;1.80;;;;;;;;;;5011859;28;20543;-59
2021/07/07 01:28:36;;;;;;;3.75;1.90;;;;;;;;;;5015216;28;20397;-59
2021/07/07 01:31:05;;;;;;;5.05;1.90;;;;;;;;;;5008770;28;20087;-60
2021/07/07 01:33:31;;;;;;;3.88;1.88;;;;;;;;;;5007864;28;20131;-59
2021/07/07 01:35:57;;;;;;;4.30;1.90;;;;;;;;;;5011276;28;20337;-58
2021/07/07 01:38:23;;;;;;;5.00;1.98;;;;;;;;;;5011186;28;20088;-59
2021/07/07 01:40:49;;;;;;;5.03;1.95;;;;;;;;;;5010330;28;20053;-60
2021/07/07 01:43:15;;;;;;;4.68;2.33;;;;;;;;;;5010729;28;20667;-58
2021/07/07 01:45:41;;;;;;;3.88;2.05;;;;;;;;;;5011493;28;20049;-59
2021/07/07 01:48:07;;;;;;;4.68;2.13;;;;;;;;;;5013055;28;20576;-59
2021/07/07 01:50:33;;;;;;;5.65;2.35;;;;;;;;;;5010281;28;20041;-60
2021/07/07 01:52:58;;;;;;;4.15;2.10;;;;;;;;;;5009194;28;20042;-59
2021/07/07 01:55:27;;;;;;;4.82;2.20;;;;;;;;;;5010514;28;20038;-59
2021/07/07 01:57:54;;;;;;;5.13;2.10;;;;;;;;;;5011245;28;20056;-57
2021/07/07 02:00:19;;;;;;;5.85;2.20;;;;;;;;;;5008158;28;20038;-58
2021/07/07 02:02:46;;;;;;;4.75;2.38;;;;;;;;;;5008753;28;20425;-58
2021/07/07 02:05:12;;;;;;;4.70;2.42;;;;;;;;;;5010265;28;20088;-58
2021/07/07 02:07:38;;;;;;;6.82;2.38;;;;;;;;;;5010287;28;20132;-58
2021/07/07 02:10:05;;;;;;;4.00;2.13;;;;;;;;;;5012051;28;20049;-58
2021/07/07 02:12:31;;;;;;;5.13;2.47;;;;;;;;;;5011938;28;20037;-59
2021/07/07 02:14:57;;;;;;;4.95;2.55;;;;;;;;;;5016797;28;20167;-59
2021/07/07 02:17:23;;;;;;;4.13;2.22;;;;;;;;;;5012733;28;20038;-59
2021/07/07 02:19:49;;;;;;;5.40;2.50;;;;;;;;;;5011941;28;20053;-58
2021/07/07 02:22:14;;;;;;;4.35;2.10;;;;;;;;;;5014516;28;20029;-58
2021/07/07 02:24:40;;;;;;;4.53;2.40;;;;;;;;;;5012103;28;20041;-58
2021/07/07 02:27:06;;;;;;;6.30;2.42;;;;;;;;;;5013515;28;20060;-59
2021/07/07 02:29:32;;;;;;;5.72;2.13;;;;;;;;;;5014256;28;20564;-59
2021/07/07 02:31:58;;;;;;;4.38;2.10;;;;;;;;;;5014047;28;20071;-58
2021/07/07 02:34:23;;;;;;;4.68;2.55;;;;;;;;;;5011287;28;20494;-59
2021/07/07 02:36:49;;;;;;;5.53;2.20;;;;;;;;;;5015778;28;20045;-59
2021/07/07 02:39:15;;;;;;;10.30;2.60;;;;;;;;;;5013663;28;20041;-59
2021/07/07 02:41:41;;;;;;;5.18;2.58;;;;;;;;;;5013041;28;20160;-59
2021/07/07 02:44:07;;;;;;;4.78;1.98;;;;;;;;;;5028222;28;20045;-58
2021/07/07 02:46:32;;;;;;;4.82;2.47;;;;;;;;;;5013971;28;20040;-57
2021/07/07 02:48:58;;;;;;;5.15;2.40;;;;;;;;;;5029203;28;20040;-59
2021/07/07 02:51:24;;;;;;;5.05;2.70;;;;;;;;;;5013075;28;20076;-56
2021/07/07 02:53:50;;;;;;;4.85;2.15;;;;;;;;;;5015144;28;20083;-59
2021/07/07 02:56:16;;;;;;;4.32;2.25;;;;;;;;;;5014494;28;20038;-59
2021/07/07 02:58:41;;;;;;;5.10;2.35;;;;;;;;;;5011710;28;20644;-59
2021/07/07 03:01:07;;;;;;;5.57;2.50;;;;;;;;;;5012479;28;20586;-58
2021/07/07 03:03:33;;;;;;;5.57;2.42;;;;;;;;;;5011295;28;20050;-58
2021/07/07 03:06:00;;;;;;;6.95;2.92;;;;;;;;;;5014815;28;20046;-56
2021/07/07 03:08:33;;;;;;;6.25;2.28;;;;;;;;;;5014060;28;20427;-58
2021/07/07 03:11:00;;;;;;;5.93;2.33;;;;;;;;;;5014384;28;20052;-56
2021/07/07 03:13:26;;;;;;;6.15;2.17;;;;;;;;;;5013953;28;20044;-56
2021/07/07 03:15:52;;;;;;;5.90;2.45;;;;;;;;;;5012356;28;20033;-57
2021/07/07 03:18:18;;;;;;;10.45;2.97;;;;;;;;;;5012983;28;20099;-60
2021/07/07 03:20:45;;;;;;;5.32;2.25;;;;;;;;;;5013571;28;20060;-59
2021/07/07 03:23:12;;;;;;;6.38;2.50;;;;;;;;;;5010168;28;20033;-60
2021/07/07 03:25:38;;;;;;;7.45;2.65;;;;;;;;;;5013808;28;20053;-60
2021/07/07 03:28:05;;;;;;;9.05;2.70;;;;;;;;;;5011966;28;20128;-57
2021/07/07 03:30:31;;;;;;;6.43;2.88;;;;;;;;;;5012405;28;20184;-58
2021/07/07 03:32:57;;;;;;;5.05;2.70;;;;;;;;;;5014685;28;20030;-60
2021/07/07 03:35:23;;;;;;;8.20;3.20;;;;;;;;;;5012050;28;20165;-61
2021/07/07 03:37:50;;;;;;;5.90;3.45;;;;;;;;;;5014814;28;20041;-61
2021/07/07 03:40:19;;;;;;;6.63;3.80;;;;;;;;;;5011612;28;20049;-60
2021/07/07 03:42:45;;;;;;;9.95;4.18;;;;;;;;;;5011994;28;20049;-60
2021/07/07 03:45:13;;;;;;;9.90;4.63;;;;;;;;;;5012656;28;20057;-60
2021/07/07 03:47:39;;;;;;;9.85;3.85;;;;;;;;;;5012838;28;20037;-60
2021/07/07 03:50:05;;;;;;;9.15;3.10;;;;;;;;;;5014095;28;20083;-59
2021/07/07 03:52:32;;;;;;;5.43;2.75;;;;;;;;;;5012147;28;20042;-58
2021/07/07 03:54:58;;;;;;;7.72;3.03;;;;;;;;;;5012099;28;20041;-59
2021/07/07 03:57:23;;;;;;;6.30;3.55;;;;;;;;;;5012174;28;20673;-60
2021/07/07 03:59:49;;;;;;;6.47;3.33;;;;;;;;;;5013809;28;20139;-60
2021/07/07 04:02:15;;;;;;;6.53;3.35;;;;;;;;;;5013479;28;20041;-59
2021/07/07 04:04:43;;;;;;;6.85;3.53;;;;;;;;;;5012421;28;20049;-57
2021/07/07 04:07:09;;;;;;;6.53;3.17;;;;;;;;;;5016654;28;20725;-60
2021/07/07 04:09:35;;;;;;;7.75;3.20;;;;;;;;;;5011844;28;20038;-59
2021/07/07 04:12:01;;;;;;;5.53;2.90;;;;;;;;;;5011066;28;20045;-59
2021/07/07 04:14:27;;;;;;;9.57;3.35;;;;;;;;;;5011589;28;20140;-57
2021/07/07 04:16:57;;;;;;;6.30;3.13;;;;;;;;;;5013754;28;20586;-58
2021/07/07 04:19:27;;;;;;;4.80;2.63;;;;;;;;;;5012000;28;20438;-60
2021/07/07 04:21:53;;;;;;;7.32;3.13;;;;;;;;;;5014317;28;20129;-57
2021/07/07 04:24:20;;;;;;;6.00;3.13;;;;;;;;;;5010125;28;20042;-58
2021/07/07 04:26:46;;;;;;;6.90;3.30;;;;;;;;;;5013973;28;20119;-58
2021/07/07 04:29:12;;;;;;;6.30;3.13;;;;;;;;;;5016356;28;20113;-57
2021/07/07 04:31:39;;;;;;;5.55;2.95;;;;;;;;;;5012868;28;20132;-57
2021/07/07 04:34:05;;;;;;;7.45;3.15;;;;;;;;;;5015750;28;20029;-58
2021/07/07 04:36:34;;;;;;;5.70;3.22;;;;;;;;;;5013358;28;20136;-57
2021/07/07 04:39:01;;;;;;;6.65;2.70;;;;;;;;;;5012006;28;20071;-57
2021/07/07 04:41:27;;;;;;;5.13;2.35;;;;;;;;;;5011132;28;20049;-59
2021/07/07 04:43:52;;;;;;;4.65;2.53;;;;;;;;;;5012601;28;20082;-58
2021/07/07 04:46:19;;;;;;;7.05;3.20;;;;;;;;;;5011817;28;20103;-56
2021/07/07 04:48:45;;;;;;;5.70;3.05;;;;;;;;;;5012273;28;20057;-58
2021/07/07 04:51:11;;;;;;;6.40;3.00;;;;;;;;;;5011128;28;20044;-58
2021/07/07 04:53:37;;;;;;;5.93;2.80;;;;;;;;;;5009496;28;20042;-58
2021/07/07 04:56:02;;;;;;;5.22;2.80;;;;;;;;;;5010177;28;20052;-57
2021/07/07 04:58:28;;;;;;;6.80;2.90;;;;;;;;;;5011056;28;20124;-58
2021/07/07 05:00:54;;;;;;;8.27;2.80;;;;;;;;;;5012603;28;20045;-55
2021/07/07 05:03:20;;;;;;;5.35;2.50;;;;;;;;;;5010668;28;20036;-57
2021/07/07 05:05:46;;;;;;;12.85;2.83;;;;;;;;;;5012397;28;20180;-60
2021/07/07 05:08:12;;;;;;;7.18;3.35;;;;;;;;;;5025920;28;20032;-57
2021/07/07 05:10:38;;;;;;;7.28;2.90;;;;;;;;;;5009839;28;20095;-57
2021/07/07 05:13:05;;;;;;;6.88;2.70;;;;;;;;;;5010823;28;20056;-57
2021/07/07 05:15:32;;;;;;;5.30;3.10;;;;;;;;;;5011319;28;20079;-57
2021/07/07 05:17:57;;;;;;;6.13;2.40;;;;;;;;;;5009433;28;20140;-58
2021/07/07 05:20:23;;;;;;;5.45;2.75;;;;;;;;;;5009511;28;20076;-56
2021/07/07 05:22:49;;;;;;;7.38;2.80;;;;;;;;;;5010434;28;20098;-58
2021/07/07 05:25:16;;;;;;;5.03;2.80;;;;;;;;;;5017073;28;20087;-58
2021/07/07 05:27:42;;;;;;;6.90;2.72;;;;;;;;;;5010871;28;20113;-59
2021/07/07 05:30:08;;;;;;;9.95;3.10;;;;;;;;;;5021437;28;20044;-56
2021/07/07 05:32:34;;;;;;;7.38;3.03;;;;;;;;;;5011446;28;20049;-57
2021/07/07 05:35:01;;;;;;;8.57;2.83;;;;;;;;;;5012259;28;20053;-58
2021/07/07 05:37:27;;;;;;;7.22;3.15;;;;;;;;;;5015928;28;20050;-56
2021/07/07 05:39:53;;;;;;;5.47;3.15;;;;;;;;;;5013652;28;20077;-56
2021/07/07 05:42:20;;;;;;;5.68;3.05;;;;;;;;;;5013821;28;20041;-55
2021/07/07 05:44:52;;;;;;;6.93;3.05;;;;;;;;;;5017400;28;20509;-56
2021/07/07 05:47:18;;;;;;;8.50;3.08;;;;;;;;;;5018934;28;20037;-55
2021/07/07 05:49:44;;;;;;;6.00;3.30;;;;;;;;;;5018538;28;20038;-57
2021/07/07 05:52:10;;;;;;;7.22;3.20;;;;;;;;;;5016439;28;20041;-60
2021/07/07 05:54:36;;;;;;;9.02;3.13;;;;;;;;;;5015702;28;20033;-58
2021/07/07 05:57:02;;;;;;;5.38;2.97;;;;;;;;;;5016908;28;20042;-57
2021/07/07 05:59:28;;;;;;;8.30;2.90;;;;;;;;;;5012539;28;20076;-59
2021/07/07 06:01:54;;;;;;;8.68;3.47;;;;;;;;;;5014761;28;20108;-57
2021/07/07 06:04:19;;;;;;;6.82;2.95;;;;;;;;;;5013746;28;20064;-57
2021/07/07 06:06:45;;;;;;;6.22;3.00;;;;;;;;;;5016065;28;20081;-57
2021/07/07 06:09:11;;;;;;;5.50;2.95;;;;;;;;;;5014205;28;20057;-57
2021/07/07 06:11:37;;;;;;;7.38;2.95;;;;;;;;;;5013803;28;20075;-57
2021/07/07 06:14:03;;;;;;;5.65;3.10;;;;;;;;;;5013389;28;20037;-58
2021/07/07 06:16:29;;;;;;;5.95;3.20;;;;;;;;;;5014661;28;20604;-58
2021/07/07 06:18:54;;;;;;;5.97;2.95;;;;;;;;;;5005986;28;20048;-56
2021/07/07 06:21:21;;;;;;;11.02;3.72;;;;;;;;;;5016757;28;20041;-54
2021/07/07 06:23:47;;;;;;;5.40;2.97;;;;;;;;;;5015375;28;20041;-56
2021/07/07 06:26:13;;;;;;;6.72;3.13;;;;;;;;;;5015936;28;20058;-57
2021/07/07 06:28:38;;;;;;;6.78;2.47;;;;;;;;;;5028196;28;20543;-56
2021/07/07 06:31:04;;;;;;;6.00;3.25;;;;;;;;;;5013870;28;20076;-56
2021/07/07 06:33:30;;;;;;;5.60;2.90;;;;;;;;;;5010755;28;20431;-56
2021/07/07 06:36:05;;;;;;;5.75;3.38;;;;;;;;;;5013264;28;20065;-54
2021/07/07 06:38:31;;;;;;;7.93;3.17;;;;;;;;;;5013598;28;20099;-56
2021/07/07 06:40:57;;;;;;;6.47;3.10;;;;;;;;;;5015888;28;20050;-55
2021/07/07 06:43:22;;;;;;;6.18;3.42;;;;;;;;;;5014952;28;20100;-54
2021/07/07 06:45:48;;;;;;;5.07;2.97;;;;;;;;;;5012815;28;20057;-57
2021/07/07 06:48:14;;;;;;;7.47;2.97;;;;;;;;;;5015243;28;20052;-55
2021/07/07 06:50:40;;;;;;;5.75;3.15;;;;;;;;;;5014128;28;20069;-55
2021/07/07 06:53:06;;;;;;;5.55;3.03;;;;;;;;;;5015684;28;20128;-56
2021/07/07 06:55:32;;;;;;;5.82;3.15;;;;;;;;;;5014395;28;20149;-55
2021/07/07 06:57:58;;;;;;;11.57;4.07;;;;;;;;;;5014553;28;20044;-57
2021/07/07 07:00:24;;;;;;;7.43;3.83;;;;;;;;;;5016904;28;20045;-55
2021/07/07 07:02:50;;;;;;;5.55;3.13;;;;;;;;;;5017714;28;20467;-55
2021/07/07 07:05:17;;;;;;;7.88;3.60;;;;;;;;;;5013812;28;20058;-55
2021/07/07 07:07:43;;;;;;;5.35;3.15;;;;;;;;;;5018100;28;20040;-56
2021/07/07 07:10:10;;;;;;;7.03;3.40;;;;;;;;;;5010368;28;20049;-56
2021/07/07 07:12:40;;;;;;;8.23;3.47;;;;;;;;;;5012418;28;22033;-57
2021/07/07 07:15:07;;;;;;;9.75;4.40;;;;;;;;;;5013412;28;20053;-55
2021/07/07 07:17:36;;;;;;;7.22;3.67;;;;;;;;;;5015850;28;20044;-54
2021/07/07 07:20:03;;;;;;;7.55;3.58;;;;;;;;;;5017611;28;20033;-56
2021/07/07 07:22:29;;;;;;;6.85;3.95;;;;;;;;;;5013192;28;20495;-57
2021/07/07 07:24:56;;;;;;;6.57;3.90;;;;;;;;;;5012183;28;20064;-55
2021/07/07 07:27:22;;;;;;;8.57;4.28;;;;;;;;;;5011169;28;20041;-57
2021/07/07 07:29:48;;;;;;;7.97;3.75;;;;;;;;;;5011978;28;20041;-57
2021/07/07 07:32:14;;;;;;;7.63;3.63;;;;;;;;;;5012848;28;20118;-54
2021/07/07 07:34:40;;;;;;;7.97;3.90;;;;;;;;;;5010477;28;20125;-55
2021/07/07 07:37:08;;;;;;;8.40;4.32;;;;;;;;;;5011271;28;20056;-56
2021/07/07 07:39:43;;;;;;;7.90;4.25;;;;;;;;;;5013035;28;20080;-55
2021/07/07 07:42:11;;;;;;;8.27;4.57;;;;;;;;;;5006025;28;20494;-54
2021/07/07 07:44:37;;;;;;;9.15;4.15;;;;;;;;;;5010557;28;20450;-54
2021/07/07 07:47:03;;;;;;;9.40;4.75;;;;;;;;;;5011283;28;20116;-53
2021/07/07 07:49:29;;;;;;;8.00;4.50;;;;;;;;;;5011282;28;20107;-55
2021/07/07 07:51:55;;;;;;;10.82;5.07;;;;;;;;;;5012817;28;20490;-55
2021/07/07 07:54:21;;;;;;;7.85;4.65;;;;;;;;;;5012180;28;20096;-56
2021/07/07 07:56:47;;;;;;;9.00;5.57;;;;;;;;;;5012898;28;20091;-53
2021/07/07 07:59:13;;;;;;;8.70;4.97;;;;;;;;;;5012020;28;20081;-55
2021/07/07 08:01:40;;;;;;;9.80;5.00;;;;;;;;;;5012482;28;20059;-56
2021/07/07 08:04:06;;;;;;;8.38;5.22;;;;;;;;;;5013913;28;20044;-55
2021/07/07 08:06:34;;;;;;;11.85;5.63;;;;;;;;;;5012546;28;20100;-52
2021/07/07 08:09:00;;;;;;;10.95;5.70;;;;;;;;;;5012339;28;20044;-55
2021/07/07 08:11:26;;;;;;;13.95;6.55;;;;;;;;;;5012177;28;20359;-55
2021/07/07 08:13:53;;;;;;;14.68;7.55;;;;;;;;;;5011557;28;20037;-54
2021/07/07 08:16:19;;;;;;;11.57;7.28;;;;;;;;;;5012480;28;20042;-54
2021/07/07 08:18:45;;;;;;;13.15;7.55;;;;;;;;;;5013724;28;20895;-55
2021/07/07 08:21:11;;;;;;;13.38;8.10;;;;;;;;;;5011225;28;20045;-54
2021/07/07 08:23:37;;;;;;;11.35;6.70;;;;;;;;;;5021640;28;20033;-55
2021/07/07 08:26:02;;;;;;;13.45;8.35;;;;;;;;;;5011190;28;20052;-53
2021/07/07 08:28:28;;;;;;;10.63;6.72;;;;;;;;;;5010128;28;20422;-54
2021/07/07 08:30:54;;;;;;;11.27;6.78;;;;;;;;;;5011970;28;20046;-54
2021/07/07 08:33:20;;;;;;;11.73;7.07;;;;;;;;;;5011291;28;20073;-54
2021/07/07 08:35:46;;;;;;;12.50;6.95;;;;;;;;;;5012021;28;20576;-56
2021/07/07 08:38:12;;;;;;;15.70;7.20;;;;;;;;;;5013022;28;20033;-56
2021/07/07 08:40:38;;;;;;;13.20;7.88;;;;;;;;;;5010389;28;20467;-55
2021/07/07 08:43:04;;;;;;;12.68;7.57;;;;;;;;;;5012816;28;20038;-56
2021/07/07 08:45:32;;;;;;;11.82;7.60;;;;;;;;;;5009544;28;20045;-56
2021/07/07 08:47:58;;;;;;;11.68;7.68;;;;;;;;;;5011452;28;20080;-55
2021/07/07 08:50:25;;;;;;;12.02;7.35;;;;;;;;;;5010591;28;20636;-58
2021/07/07 08:52:52;;;;;;;13.57;6.90;;;;;;;;;;5012598;28;20042;-56
2021/07/07 08:55:19;;;;;;;11.48;6.75;;;;;;;;;;5011065;28;20042;-56
2021/07/07 08:57:45;;;;;;;12.77;6.82;;;;;;;;;;5013669;28;20534;-56
2021/07/07 09:00:14;;;;;;;10.40;6.75;;;;;;;;;;5012824;28;20041;-53
2021/07/07 09:02:50;;;;;;;11.52;7.30;;;;;;;;;;5009878;28;20478;-55
2021/07/07 09:05:15;;;;;;;12.80;8.38;;;;;;;;;;5010499;28;20666;-54
2021/07/07 09:07:41;;;;;;;12.77;6.97;;;;;;;;;;5008738;28;20038;-56
2021/07/07 09:10:07;;;;;;;10.25;6.28;;;;;;;;;;5013258;28;20059;-54
2021/07/07 09:12:35;;;;;;;14.18;7.78;;;;;;;;;;5010911;28;20470;-57
2021/07/07 09:15:06;;;;;;;11.30;6.78;;;;;;;;;;5013092;28;20033;-55
2021/07/07 09:17:45;;;;;;;10.38;6.93;;;;;;;;;;5012951;28;20054;-56
2021/07/07 09:20:25;;;;;;;13.30;6.75;;;;;;;;;;5015255;28;20041;-53
2021/07/07 09:23:11;;;;;;;11.43;6.10;;;;;;;;;;5012388;28;20045;-53
2021/07/07 09:25:44;;;;;;;13.35;7.00;;;;;;;;;;5014339;28;21301;-53
2021/07/07 09:28:36;;;;;;;10.85;7.00;;;;;;;;;;5014993;28;20057;-55
2021/07/07 09:31:04;;;;;;;13.05;7.13;;;;;;;;;;5009936;28;20755;-55
2021/07/07 09:33:42;;;;;;;11.73;6.78;;;;;;;;;;5012623;28;20053;-55
2021/07/07 09:36:17;;;;;;;11.63;6.63;;;;;;;;;;5015507;28;20052;-56
2021/07/07 09:38:43;;;;;;;11.35;7.38;;;;;;;;;;5014927;28;20692;-55
2021/07/07 09:41:13;;;;;;;11.35;7.13;;;;;;;;;;5014314;28;20072;-56
2021/07/07 09:43:46;;;;;;;15.35;7.57;;;;;;;;;;5012805;28;20041;-55
2021/07/07 09:46:12;;;;;;;11.43;7.07;;;;;;;;;;5015361;28;20072;-55
2021/07/07 09:48:38;;;;;;;12.10;7.30;;;;;;;;;;5014638;28;20049;-57
2021/07/07 09:51:04;;;;;;;11.25;7.70;;;;;;;;;;5015808;28;20044;-55
2021/07/07 09:53:30;;;;;;;15.27;7.68;;;;;;;;;;5016378;28;20110;-54
2021/07/07 09:55:56;;;;;;;15.57;8.10;;;;;;;;;;5016548;28;20044;-54
2021/07/07 09:58:22;;;;;;;10.32;6.65;;;;;;;;;;5014873;28;20534;-54
2021/07/07 10:00:48;;;;;;;11.73;7.03;;;;;;;;;;5015645;28;22838;-56
2021/07/07 10:03:14;;;;;;;13.32;8.23;;;;;;;;;;5010813;28;20514;-53
2021/07/07 10:05:41;;;;;;;11.65;7.65;;;;;;;;;;5030065;28;20049;-54
2021/07/07 10:08:07;;;;;;;13.95;8.63;;;;;;;;;;5013249;28;20045;-54
2021/07/07 10:10:35;;;;;;;16.30;9.23;;;;;;;;;;5012173;28;20033;-56
2021/07/07 10:13:01;;;;;;;13.40;7.88;;;;;;;;;;5013053;28;20048;-56
2021/07/07 10:15:27;;;;;;;13.75;8.43;;;;;;;;;;5013917;28;20038;-54
2021/07/07 10:17:54;;;;;;;14.55;8.63;;;;;;;;;;5015124;28;20045;-54
2021/07/07 10:20:20;;;;;;;13.18;8.70;;;;;;;;;;5013137;28;20670;-56
2021/07/07 10:22:46;;;;;;;17.40;8.98;;;;;;;;;;5012658;28;20073;-54
2021/07/07 10:25:14;;;;;;;13.18;8.00;;;;;;;;;;5015109;28;20137;-55
2021/07/07 10:27:41;;;;;;;13.88;8.82;;;;;;;;;;5014656;28;20041;-56
2021/07/07 10:30:08;;;;;;;14.57;8.60;;;;;;;;;;5013487;28;20056;-55
2021/07/07 10:32:34;;;;;;;13.80;9.00;;;;;;;;;;5007025;28;20133;-55
2021/07/07 10:35:10;;;;;;;15.52;8.10;;;;;;;;;;5014336;28;20052;-55
2021/07/07 10:37:37;;;;;;;17.02;8.73;;;;;;;;;;5011335;28;20076;-55
2021/07/07 10:40:22;;;;;;;15.75;8.40;;;;;;;;;;5014256;28;20057;-56
2021/07/07 10:42:48;;;;;;;14.02;8.57;;;;;;;;;;5011263;28;20041;-56
2021/07/07 10:45:30;;;;;;;22.60;9.85;;;;;;;;;;5012775;28;20056;-56
2021/07/07 10:48:15;;;;;;;16.80;9.55;;;;;;;;;;5013108;28;20037;-56
2021/07/07 10:50:41;;;;;;;16.17;8.10;;;;;;;;;;5012272;28;20038;-56
2021/07/07 10:53:32;;;;;;;14.43;8.00;;;;;;;;;;5003967;28;22130;-56
2021/07/07 10:55:59;;;;;;;16.05;9.38;;;;;;;;;;5004387;28;20569;-56
2021/07/07 10:58:27;;;;;;;18.83;9.45;;;;;;;;;;5005449;28;20065;-55
2021/07/07 11:00:53;;;;;;;16.00;10.15;;;;;;;;;;5005260;28;20038;-55
2021/07/07 11:03:44;;;;;;;16.00;9.88;;;;;;;;;;5004642;28;20093;-55
2021/07/07 11:06:26;;;;;;;18.25;10.13;;;;;;;;;;5003927;28;20055;-55
2021/07/07 11:09:03;;;;;;;17.73;10.07;;;;;;;;;;5005551;28;20073;-56
2021/07/07 11:11:29;;;;;;;15.85;9.50;;;;;;;;;;4994230;28;20041;-54
2021/07/07 11:13:55;;;;;;;20.27;10.75;;;;;;;;;;5003596;28;20042;-55
2021/07/07 11:16:22;;;;;;;17.95;10.60;;;;;;;;;;5004170;28;20038;-56
2021/07/07 11:18:49;;;;;;;15.75;9.00;;;;;;;;;;5005136;28;20041;-55
2021/07/07 11:21:15;;;;;;;22.10;11.13;;;;;;;;;;5003814;28;20049;-54
2021/07/07 11:23:40;;;;;;;18.15;11.13;;;;;;;;;;5004627;28;20049;-56
2021/07/07 11:26:07;;;;;;;17.40;11.63;;;;;;;;;;5004790;28;20045;-54
2021/07/07 11:28:33;;;;;;;20.08;10.77;;;;;;;;;;5003790;28;20045;-55
2021/07/07 11:30:59;;;;;;;21.40;12.13;;;;;;;;;;5007676;28;20045;-55
2021/07/07 11:33:25;;;;;;;20.00;12.10;;;;;;;;;;5017076;28;20049;-54
2021/07/07 11:35:51;;;;;;;19.17;11.80;;;;;;;;;;5012828;28;20384;-55
2021/07/07 11:38:27;;;;;;;23.05;11.70;;;;;;;;;;5012541;28;20056;-54
2021/07/07 11:40:53;;;;;;;23.92;12.50;;;;;;;;;;5011008;28;20053;-56
2021/07/07 11:43:20;;;;;;;23.92;12.98;;;;;;;;;;5010125;28;20041;-55
2021/07/07 11:45:47;;;;;;;22.45;13.05;;;;;;;;;;5013350;28;20439;-55
2021/07/07 11:50:46;;;;;;;20.02;12.50;;;;;;;;;;5008949;28;20041;-56
2021/07/07 11:53:12;;;;;;;23.40;13.07;;;;;;;;;;5011554;28;20168;-56
2021/07/07 11:55:44;;;;;;;20.08;11.43;;;;;;;;;;5011913;28;20717;-56
2021/07/07 11:58:11;;;;;;;20.25;11.38;;;;;;;;;;5014598;28;20124;-56
2021/07/07 12:00:37;;;;;;;25.73;14.18;;;;;;;;;;5012652;28;20502;-56
2021/07/07 12:03:03;;;;;;;19.95;13.32;;;;;;;;;;5011131;28;20096;-55
2021/07/07 12:05:29;;;;;;;21.58;11.95;;;;;;;;;;5012340;28;20314;-56
2021/07/07 12:08:14;;;;;;;22.38;12.07;;;;;;;;;;5013675;28;20048;-56
2021/07/07 12:10:41;;;;;;;20.90;12.35;;;;;;;;;;5013724;28;20102;-55
2021/07/07 12:13:30;;;;;;;18.88;11.45;;;;;;;;;;5013681;28;20083;-54
2021/07/07 12:16:13;;;;;;;23.10;12.55;;;;;;;;;;5010111;28;20798;-56
2021/07/07 12:18:40;;;;;;;24.95;12.07;;;;;;;;;;5012588;28;20038;-56
2021/07/07 12:21:06;;;;;;;17.65;10.85;;;;;;;;;;5011394;28;20033;-55
2021/07/07 12:23:42;;;;;;;19.25;10.98;;;;;;;;;;5010698;28;20094;-57
2021/07/07 12:26:09;;;;;;;16.95;10.60;;;;;;;;;;5010821;28;20049;-56
2021/07/07 12:28:35;;;;;;;16.35;9.95;;;;;;;;;;5011195;28;20041;-56
2021/07/07 12:31:01;;;;;;;17.92;11.57;;;;;;;;;;5014059;28;20048;-56
2021/07/07 12:33:30;;;;;;;15.73;10.35;;;;;;;;;;5009315;28;20049;-57
2021/07/07 12:35:56;;;;;;;21.27;11.25;;;;;;;;;;5010403;28;20041;-56
2021/07/07 12:38:22;;;;;;;19.90;10.90;;;;;;;;;;5010462;28;20092;-57
2021/07/07 12:40:53;;;;;;;16.63;10.15;;;;;;;;;;5011507;28;20053;-57
2021/07/07 12:43:26;;;;;;;15.43;9.55;;;;;;;;;;5010362;28;20038;-55
2021/07/07 12:46:01;;;;;;;14.10;9.13;;;;;;;;;;5011831;28;20046;-57
2021/07/07 12:48:27;;;;;;;13.15;8.13;;;;;;;;;;5013345;28;20038;-55
2021/07/07 12:50:53;;;;;;;14.23;9.60;;;;;;;;;;5012650;28;20904;-55
2021/07/07 12:53:35;;;;;;;13.40;8.75;;;;;;;;;;5009540;28;20038;-55
2021/07/07 12:56:07;;;;;;;16.52;10.07;;;;;;;;;;5024099;28;20049;-54
2021/07/07 12:58:33;;;;;;;14.77;10.30;;;;;;;;;;5010951;28;20038;-57
2021/07/07 13:00:59;;;;;;;18.60;10.93;;;;;;;;;;5011115;28;20659;-58
2021/07/07 13:03:33;;;;;;;19.60;10.75;;;;;;;;;;5008180;28;22732;-57
2021/07/07 13:06:00;;;;;;;17.15;11.23;;;;;;;;;;5011049;28;20506;-56
2021/07/07 13:08:40;;;;;;;18.42;10.93;;;;;;;;;;5012521;28;20044;-57
2021/07/07 13:11:06;;;;;;;16.98;10.90;;;;;;;;;;5011992;28;20078;-57
2021/07/07 13:13:33;;;;;;;17.77;11.25;;;;;;;;;;5012664;28;20056;-57
2021/07/07 13:16:07;;;;;;;19.00;12.90;;;;;;;;;;5008256;28;20044;-57
2021/07/07 13:18:33;;;;;;;23.60;13.88;;;;;;;;;;5010515;28;20047;-57
2021/07/07 13:20:59;;;;;;;21.08;13.07;;;;;;;;;;5011784;28;20071;-57
2021/07/07 13:23:26;;;;;;;16.98;11.68;;;;;;;;;;5010914;28;20040;-57
2021/07/07 13:25:52;;;;;;;18.15;10.23;;;;;;;;;;5012082;28;20075;-56
2021/07/07 13:28:27;;;;;;;20.20;12.60;;;;;;;;;;5011434;28;20045;-56
2021/07/07 13:30:53;;;;;;;25.27;12.07;;;;;;;;;;5013414;28;20045;-57
2021/07/07 13:33:19;;;;;;;18.00;11.80;;;;;;;;;;5022730;28;20037;-56
2021/07/07 13:35:45;;;;;;;18.77;10.70;;;;;;;;;;5010319;28;20165;-57
2021/07/07 13:38:11;;;;;;;20.98;12.15;;;;;;;;;;5011532;28;20159;-58
2021/07/07 13:40:37;;;;;;;20.35;11.77;;;;;;;;;;5011220;28;20050;-57
2021/07/07 13:43:02;;;;;;;15.85;10.82;;;;;;;;;;5012284;28;20084;-56
2021/07/07 13:45:29;;;;;;;18.95;11.20;;;;;;;;;;5010947;28;20054;-56
2021/07/07 13:47:55;;;;;;;15.52;10.18;;;;;;;;;;5011968;28;20049;-53
2021/07/07 13:50:21;;;;;;;15.90;9.75;;;;;;;;;;5010588;28;20406;-54
2021/07/07 13:52:47;;;;;;;18.23;10.48;;;;;;;;;;5011496;28;20088;-54
2021/07/07 13:55:12;;;;;;;18.98;10.07;;;;;;;;;;5010786;28;20046;-56
2021/07/07 13:57:38;;;;;;;14.60;9.15;;;;;;;;;;5008748;28;20050;-55
2021/07/07 14:00:06;;;;;;;15.20;9.25;;;;;;;;;;5011357;28;20145;-55
2021/07/07 14:02:32;;;;;;;13.23;8.68;;;;;;;;;;5010358;28;20227;-55
2021/07/07 14:04:57;;;;;;;13.38;8.18;;;;;;;;;;5012313;28;20802;-54
2021/07/07 14:07:23;;;;;;;11.95;7.53;;;;;;;;;;5013657;28;20033;-53
2021/07/07 14:09:49;;;;;;;16.20;7.68;;;;;;;;;;5013243;28;20038;-55
2021/07/07 14:12:16;;;;;;;16.90;8.60;;;;;;;;;;5017780;28;20095;-54
2021/07/07 14:14:42;;;;;;;13.30;7.10;;;;;;;;;;5013276;28;20057;-56
2021/07/07 14:17:08;;;;;;;14.23;7.13;;;;;;;;;;5015759;28;20100;-55
2021/07/07 14:19:34;;;;;;;12.65;7.57;;;;;;;;;;5015662;28;20040;-54
2021/07/07 14:22:00;;;;;;;10.30;6.85;;;;;;;;;;5015521;28;20046;-56
2021/07/07 14:24:26;;;;;;;11.50;5.90;;;;;;;;;;5019318;28;20045;-55
2021/07/07 14:26:52;;;;;;;14.30;6.25;;;;;;;;;;5012872;28;20053;-55
2021/07/07 14:29:18;;;;;;;12.30;6.50;;;;;;;;;;5012854;28;20069;-53
2021/07/07 14:31:44;;;;;;;12.60;6.30;;;;;;;;;;5016968;28;20033;-53
2021/07/07 14:34:16;;;;;;;10.63;6.57;;;;;;;;;;5017071;28;20097;-53
2021/07/07 14:36:41;;;;;;;11.43;5.50;;;;;;;;;;5015087;28;20045;-55
2021/07/07 14:39:07;;;;;;;7.78;4.70;;;;;;;;;;5016390;28;20037;-53